Time,TemperatureF,DewpointF,PressureIn,WindDirection,WindDirectionDegrees,WindSpeedMPH,WindSpeedGustMPH,Humidity,HourlyPrecipIn,Conditions,Clouds,dailyrainin,SoftwareType,DateUTC
2013-08-20 05:00:00,63.7,56.4,29.77,WSW,252,8.0,8.0,77,0.00,,,0.00,Wunderground v.1.15,2013-08-20 12:00:00,
2013-08-20 05:10:00,64.3,56.6,29.78,SW,217,7.0,7.0,76,0.00,,,0.00,Wunderground v.1.15,2013-08-20 12:10:00,
2013-08-20 05:20:00,64.3,56.2,29.80,ENE,77,3.0,3.0,75,0.00,,,0.00,Wunderground v.1.15,2013-08-20 12:20:00,
2013-08-20 05:30:00,64.1,56.4,29.80,ENE,73,2.0,2.0,76,0.00,,,0.00,Wunderground v.1.15,2013-08-20 12:30:00,
2013-08-20 05:40:00,63.9,56.5,29.80,ENE,62,1.0,1.0,77,0.00,,,0.00,Wunderground v.1.15,2013-08-20 12:40:00,
2013-08-20 05:50:00,63.9,56.2,29.81,West,271,1.0,1.0,76,0.00,,,0.00,Wunderground v.1.15,2013-08-20 12:50:00,
2013-08-20 06:10:00,62.7,56.1,29.83,WSW,257,2.0,2.0,79,0.00,,,0.00,Wunderground v.1.15,2013-08-20 13:10:00,
2013-08-20 06:20:00,62.6,56.0,29.83,East,83,1.0,1.0,79,0.00,,,0.00,Wunderground v.1.15,2013-08-20 13:20:00,
2013-08-20 06:30:00,61.8,55.9,29.83,WNW,291,2.0,2.0,81,0.00,,,0.00,Wunderground v.1.15,2013-08-20 13:30:00,
2013-08-20 06:40:00,62.3,56.4,29.82,WSW,244,2.0,3.0,81,0.00,,,0.00,Wunderground v.1.15,2013-08-20 13:40:00,
2013-08-20 06:50:00,62.7,56.4,29.82,WNW,290,3.0,6.0,80,0.00,,,0.00,Wunderground v.1.15,2013-08-20 13:50:00,
2013-08-20 07:00:00,62.4,56.1,29.84,ESE,118,2.0,2.0,80,0.00,,,0.00,Wunderground v.1.15,2013-08-20 14:00:00,
2013-08-20 07:10:00,62.4,56.5,29.83,SW,217,2.0,3.0,81,0.00,,,0.00,Wunderground v.1.15,2013-08-20 14:10:00,
2013-08-20 07:20:00,62.4,56.5,29.83,NW,322,3.0,6.0,81,0.00,,,0.00,Wunderground v.1.15,2013-08-20 14:20:00,
2013-08-20 07:30:00,62.3,56.7,29.84,ESE,118,3.0,3.0,82,0.00,,,0.00,Wunderground v.1.15,2013-08-20 14:30:00,
2013-08-20 07:40:00,62.1,57.2,29.84,WNW,284,2.0,2.0,84,0.00,,,0.00,Wunderground v.1.15,2013-08-20 14:40:00,
2013-08-20 07:50:00,62.1,57.2,29.84,West,271,2.0,2.0,84,0.00,,,0.00,Wunderground v.1.15,2013-08-20 14:50:00,
2013-08-20 08:00:00,62.1,57.2,29.84,West,274,3.0,3.0,84,0.00,,,0.00,Wunderground v.1.15,2013-08-20 15:00:00,
2013-08-20 08:10:00,62.1,57.2,29.84,West,262,3.0,3.0,84,0.00,,,0.00,Wunderground v.1.15,2013-08-20 15:10:00,
2013-08-20 08:20:00,62.7,57.8,29.85,ESE,103,3.0,3.0,84,0.00,,,0.00,Wunderground v.1.15,2013-08-20 15:20:00,
2013-08-20 08:30:00,63.3,57.7,29.85,South,170,3.0,3.0,82,0.00,,,0.00,Wunderground v.1.15,2013-08-20 15:30:00,
2013-08-20 08:40:00,63.2,57.9,29.84,West,276,3.0,3.0,83,0.00,,,0.00,Wunderground v.1.15,2013-08-20 15:40:00,
2013-08-20 08:50:00,64.0,58.4,29.85,East,89,3.0,3.0,82,0.00,,,0.00,Wunderground v.1.15,2013-08-20 15:50:00,
2013-08-20 09:00:00,64.8,58.5,29.85,East,96,2.0,3.0,80,0.00,,,0.00,Wunderground v.1.15,2013-08-20 16:00:00,
2013-08-20 09:10:00,64.9,58.2,29.86,West,280,3.0,8.0,79,0.00,,,0.00,Wunderground v.1.15,2013-08-20 16:10:00,
2013-08-20 09:20:00,65.2,58.5,29.86,East,96,2.0,2.0,79,0.00,,,0.00,Wunderground v.1.15,2013-08-20 16:20:00,
2013-08-20 09:30:00,66.3,58.9,29.86,East,83,2.0,3.0,77,0.00,,,0.00,Wunderground v.1.15,2013-08-20 16:30:00,
2013-08-20 09:40:00,66.7,59.3,29.86,ENE,71,3.0,3.0,77,0.00,,,0.00,Wunderground v.1.15,2013-08-20 16:40:00,
2013-08-20 09:50:00,67.2,59.4,29.86,SSW,210,2.0,2.0,76,0.00,,,0.00,Wunderground v.1.15,2013-08-20 16:50:00,
2013-08-20 10:00:00,67.3,59.1,29.86,East,91,3.0,3.0,75,0.00,,,0.00,Wunderground v.1.15,2013-08-20 17:00:00,
2013-08-20 10:10:00,68.8,59.4,29.86,SE,141,2.0,2.0,72,0.00,,,0.00,Wunderground v.1.15,2013-08-20 17:10:00,
2013-08-20 10:20:00,70.2,60.0,29.86,West,270,1.0,5.0,70,0.00,,,0.00,Wunderground v.1.15,2013-08-20 17:20:00,
2013-08-20 15:40:00,84.0,59.7,29.80,WNW,298,7.0,7.0,44,0.00,,,0.00,Wunderground v.1.15,2013-08-20 22:40:00,
2013-08-20 15:50:00,85.2,59.5,29.80,WNW,287,3.0,10.0,42,0.00,,,0.00,Wunderground v.1.15,2013-08-20 22:50:00,
2013-08-20 16:00:00,84.6,60.3,29.80,West,269,6.0,6.0,44,0.00,,,0.00,Wunderground v.1.15,2013-08-20 23:00:00,
2013-08-20 16:10:00,84.8,60.5,29.79,West,280,5.0,7.0,44,0.00,,,0.00,Wunderground v.1.15,2013-08-20 23:10:00,
2013-08-20 16:20:00,84.8,60.5,29.79,WNW,287,5.0,5.0,44,0.00,,,0.00,Wunderground v.1.15,2013-08-20 23:20:00,
2013-08-20 16:30:00,84.7,60.4,29.78,WSW,252,5.0,8.0,44,0.00,,,0.00,Wunderground v.1.15,2013-08-20 23:30:00,
2013-08-20 16:40:00,84.5,60.2,29.78,WSW,249,5.0,6.0,44,0.00,,,0.00,Wunderground v.1.15,2013-08-20 23:40:00,
2013-08-20 16:50:00,84.4,60.1,29.78,SW,236,5.0,5.0,44,0.00,,,0.00,Wunderground v.1.15,2013-08-20 23:50:00,
2013-08-20 17:00:00,84.3,60.0,29.78,WNW,284,6.0,6.0,44,0.00,,,0.00,Wunderground v.1.15,2013-08-21 00:00:00,
2013-08-20 17:10:00,84.5,60.2,29.77,NNW,332,4.0,8.0,44,0.00,,,0.00,Wunderground v.1.15,2013-08-21 00:10:00,
2013-08-20 17:20:00,84.2,60.6,29.77,NNW,333,5.0,5.0,45,0.00,,,0.00,Wunderground v.1.15,2013-08-21 00:20:00,
2013-08-20 17:30:00,82.9,59.4,29.77,West,269,4.0,4.0,45,0.00,,,0.00,Wunderground v.1.15,2013-08-21 00:30:00,
2013-08-20 17:40:00,79.9,57.9,29.77,WNW,298,6.0,12.0,47,0.00,,,0.00,Wunderground v.1.15,2013-08-21 00:40:00,
2013-08-20 17:50:00,77.2,56.6,29.77,WSW,249,8.0,14.0,49,0.00,,,0.00,Wunderground v.1.15,2013-08-21 00:50:00,
2013-08-20 18:00:00,75.7,56.8,29.77,WNW,302,8.0,8.0,52,0.00,,,0.00,Wunderground v.1.15,2013-08-21 01:00:00,
2013-08-20 18:10:00,74.5,57.3,29.78,SSW,201,8.0,8.0,55,0.00,,,0.00,Wunderground v.1.15,2013-08-21 01:10:00,
2013-08-20 18:20:00,73.7,57.5,29.79,SW,226,7.0,7.0,57,0.00,,,0.00,Wunderground v.1.15,2013-08-21 01:20:00,
2013-08-20 18:30:00,72.7,57.1,29.79,WSW,249,6.0,6.0,58,0.00,,,0.00,Wunderground v.1.15,2013-08-21 01:30:00,
2013-08-20 18:40:00,71.9,57.7,29.79,NNE,26,6.0,7.0,61,0.00,,,0.00,Wunderground v.1.15,2013-08-21 01:40:00,
2013-08-20 18:50:00,71.2,58.0,29.79,West,259,6.0,6.0,63,0.00,,,0.00,Wunderground v.1.15,2013-08-21 01:50:00,
2013-08-20 19:00:00,70.9,58.5,29.79,SSW,205,6.0,6.0,65,0.00,,,0.00,Wunderground v.1.15,2013-08-21 02:00:00,
2013-08-20 19:10:00,70.6,58.3,29.79,WSW,257,5.0,8.0,65,0.00,,,0.00,Wunderground v.1.15,2013-08-21 02:10:00,